Time;durP1;ratioP1;P1;durP2;ratioP2;P2;SDS_P1;SDS_P2;PMS_P1;PMS_P2;Temp;Humidity;BMP_temperature;BMP_pressure;BME280_temperature;BME280_humidity;BME280_pressure;Samples;Min_cycle;Max_cycle;Signal;HPM_P1;HPM_P2
2022/05/12 00:02:28;;;;;;;10.37;6.20;;;13.10;99.90;;;;;;4396385;28;657516;-67
2022/05/12 00:05:15;;;;;;;13.43;7.60;;;13.00;99.90;;;;;;4391012;28;657907;-66
2022/05/12 00:08:02;;;;;;;12.40;6.27;;;13.00;99.90;;;;;;4395889;28;659018;-66
2022/05/12 00:10:50;;;;;;;9.90;6.27;;;12.80;99.90;;;;;;4395451;28;658652;-66
2022/05/12 00:13:39;;;;;;;14.07;6.80;;;12.70;99.90;;;;;;4405890;28;657353;-66
2022/05/12 00:16:26;;;;;;;7.67;6.33;;;12.80;99.90;;;;;;4378983;28;658141;-66
2022/05/12 00:19:13;;;;;;;11.60;6.30;;;12.70;99.90;;;;;;4400878;28;656742;-66
2022/05/12 00:22:00;;;;;;;14.10;6.60;;;12.80;99.90;;;;;;4383037;28;657226;-66
2022/05/12 00:24:47;;;;;;;10.13;6.57;;;12.70;99.90;;;;;;4404911;28;657587;-66
2022/05/12 00:27:34;;;;;;;12.67;6.67;;;12.70;99.90;;;;;;4400876;28;657827;-66
2022/05/12 00:30:23;;;;;;;7.33;6.10;;;12.60;99.90;;;;;;4380229;28;658214;-66
2022/05/12 00:33:10;;;;;;;9.17;6.20;;;12.80;99.90;;;;;;4382631;28;656130;-66
2022/05/12 00:35:58;;;;;;;10.80;5.93;;;12.80;99.90;;;;;;4402426;28;657662;-66
2022/05/12 00:38:45;;;;;;;11.97;6.43;;;12.80;99.90;;;;;;4396914;28;657998;-66
2022/05/12 00:41:32;;;;;;;12.47;6.20;;;12.70;99.90;;;;;;4401216;28;658254;-66
2022/05/12 00:44:20;;;;;;;10.73;6.13;;;12.70;99.90;;;;;;4392177;28;657698;-66
2022/05/12 00:47:09;;;;;;;8.93;5.33;;;12.80;99.90;;;;;;4403965;28;658200;-66
2022/05/12 00:49:56;;;;;;;11.73;6.07;;;13.10;99.90;;;;;;4378087;28;656430;-66
2022/05/12 00:52:43;;;;;;;11.30;6.07;;;13.00;99.90;;;;;;4395005;28;658391;-67
2022/05/12 00:55:32;;;;;;;9.52;5.50;;;13.00;99.90;;;;;;4375360;28;657886;-67
2022/05/12 00:58:21;;;;;;;7.17;5.80;;;13.00;99.90;;;;;;4396288;28;657177;-66
2022/05/12 01:01:09;;;;;;;9.83;5.27;;;12.80;99.90;;;;;;4400788;28;657586;-66
2022/05/12 01:03:59;;;;;;;12.20;5.45;;;13.00;99.90;;;;;;4377956;28;656918;-66
2022/05/12 01:06:46;;;;;;;8.03;5.97;;;12.70;99.90;;;;;;4379300;28;657907;-66
2022/05/12 01:09:33;;;;;;;7.50;5.87;;;12.70;99.90;;;;;;4396183;28;656654;-66
2022/05/12 01:12:21;;;;;;;10.87;6.17;;;12.60;99.90;;;;;;4380048;28;657095;-66
2022/05/12 01:15:09;;;;;;;15.00;5.70;;;12.50;99.90;;;;;;4404147;28;658247;-66
2022/05/12 01:18:03;;;;;;;13.77;6.27;;;12.60;99.90;;;;;;4385822;28;657738;-66
2022/05/12 01:20:52;;;;;;;10.03;5.93;;;12.60;99.90;;;;;;4363061;28;657633;-66
2022/05/12 01:23:42;;;;;;;12.37;5.97;;;12.40;99.90;;;;;;4399031;28;658517;-67
2022/05/12 01:26:29;;;;;;;11.20;6.00;;;12.40;99.90;;;;;;4375440;28;658244;-66
2022/05/12 01:29:16;;;;;;;7.90;5.90;;;12.40;99.90;;;;;;4384873;28;657984;-66
2022/05/12 01:32:04;;;;;;;8.43;6.30;;;12.40;99.90;;;;;;4402123;28;656940;-67
2022/05/12 01:34:52;;;;;;;9.63;5.90;;;12.40;99.90;;;;;;4387480;28;658291;-66
2022/05/12 01:37:40;;;;;;;10.53;6.10;;;12.30;99.90;;;;;;4401623;28;657069;-66
2022/05/12 01:40:29;;;;;;;10.13;6.23;;;12.30;99.90;;;;;;4379066;28;659713;-66
2022/05/12 01:43:16;;;;;;;12.73;5.73;;;12.20;99.90;;;;;;4378853;28;657468;-66
2022/05/12 01:46:03;;;;;;;10.43;5.90;;;12.20;99.90;;;;;;4401853;28;658697;-66
2022/05/12 01:48:50;;;;;;;8.53;5.60;;;12.20;99.90;;;;;;4383602;28;657734;-66
2022/05/12 01:51:38;;;;;;;10.50;5.83;;;12.30;99.90;;;;;;4401986;28;657708;-66
2022/05/12 01:54:26;;;;;;;12.90;5.85;;;12.10;99.90;;;;;;4387254;28;657336;-66
2022/05/12 01:57:14;;;;;;;10.80;5.97;;;12.20;99.90;;;;;;4397668;28;658674;-66
2022/05/12 02:00:01;;;;;;;13.57;5.95;;;12.20;99.90;;;;;;4379487;28;658774;-66
2022/05/12 02:02:49;;;;;;;11.50;6.20;;;12.10;99.90;;;;;;4403226;28;657110;-66
2022/05/12 02:05:37;;;;;;;7.53;5.90;;;12.20;99.90;;;;;;4378284;28;657420;-66
2022/05/12 02:08:24;;;;;;;8.30;6.13;;;12.10;99.90;;;;;;4402076;28;656346;-66
2022/05/12 02:11:11;;;;;;;7.27;5.50;;;12.10;99.90;;;;;;4379589;28;656404;-66
2022/05/12 02:14:00;;;;;;;8.63;5.93;;;12.10;99.90;;;;;;4403599;28;658247;-66
2022/05/12 02:16:47;;;;;;;7.80;5.63;;;12.00;99.90;;;;;;4380194;28;657335;-66
2022/05/12 02:19:34;;;;;;;10.87;5.73;;;12.00;99.90;;;;;;4394620;28;656872;-66
2022/05/12 02:22:21;;;;;;;10.00;6.13;;;12.00;99.90;;;;;;4378762;28;658166;-66
2022/05/12 02:25:09;;;;;;;8.33;6.13;;;12.00;99.90;;;;;;4402864;28;657832;-66
2022/05/12 02:27:56;;;;;;;11.87;5.60;;;12.00;99.90;;;;;;4381092;28;656376;-66
2022/05/12 02:30:45;;;;;;;11.27;5.73;;;12.00;99.90;;;;;;4404447;28;658528;-66
2022/05/12 02:33:32;;;;;;;10.53;5.97;;;11.90;99.90;;;;;;4378964;28;658785;-66
2022/05/12 02:36:19;;;;;;;9.30;5.77;;;11.80;99.90;;;;;;4399232;28;658418;-67
2022/05/12 02:39:06;;;;;;;10.13;6.43;;;11.80;99.90;;;;;;4385534;28;656433;-66
2022/05/12 02:41:53;;;;;;;11.43;6.40;;;11.70;99.90;;;;;;4398536;28;658379;-67
2022/05/12 02:44:41;;;;;;;8.40;5.97;;;11.70;99.90;;;;;;4377112;28;657626;-67
2022/05/12 02:47:29;;;;;;;10.03;6.00;;;11.70;99.90;;;;;;4395625;28;657154;-67
2022/05/12 02:50:20;;;;;;;10.33;5.83;;;11.70;99.90;;;;;;4361423;28;657598;-66
2022/05/12 02:53:07;;;;;;;8.77;5.70;;;11.70;99.90;;;;;;4381746;28;658303;-66
2022/05/12 02:55:54;;;;;;;10.23;5.97;;;11.90;99.90;;;;;;4400984;28;656622;-66
2022/05/12 02:58:42;;;;;;;7.33;6.40;;;11.80;99.90;;;;;;4374477;28;657641;-66
2022/05/12 03:01:29;;;;;;;9.13;6.07;;;11.80;99.90;;;;;;4396483;28;656710;-66
2022/05/12 03:04:18;;;;;;;7.70;5.30;;;11.80;99.90;;;;;;4380619;28;657039;-66
2022/05/12 03:07:05;;;;;;;9.30;5.67;;;11.80;99.90;;;;;;4392949;28;656848;-65
2022/05/12 03:09:52;;;;;;;10.00;5.40;;;11.80;99.90;;;;;;4402221;28;656834;-66
2022/05/12 03:12:39;;;;;;;7.90;5.53;;;11.90;99.90;;;;;;4395453;28;657568;-66
2022/05/12 03:15:27;;;;;;;8.50;6.00;;;11.90;99.90;;;;;;4377812;28;657630;-66
2022/05/12 03:18:14;;;;;;;11.00;5.70;;;11.80;99.90;;;;;;4401026;28;657667;-66
2022/05/12 03:21:03;;;;;;;7.57;6.00;;;11.80;99.90;;;;;;4382695;28;657843;-66
2022/05/12 03:23:50;;;;;;;8.53;5.87;;;11.90;99.90;;;;;;4384149;28;656483;-66
2022/05/12 03:26:38;;;;;;;12.03;6.50;;;11.80;99.90;;;;;;4398437;28;658046;-66
2022/05/12 03:29:25;;;;;;;8.10;6.20;;;11.80;99.90;;;;;;4381332;28;658972;-66
2022/05/12 03:32:12;;;;;;;11.47;6.53;;;11.80;99.90;;;;;;4399822;28;657165;-66
2022/05/12 03:35:00;;;;;;;8.17;5.80;;;11.90;99.90;;;;;;4399771;28;657451;-66
2022/05/12 03:37:49;;;;;;;13.67;6.03;;;12.00;99.90;;;;;;4402789;28;656322;-66
2022/05/12 03:40:36;;;;;;;9.83;6.07;;;12.00;99.90;;;;;;4375870;28;657463;-66
2022/05/12 03:46:28;;;;;;;11.90;6.30;;;12.20;99.90;;;;;;4375745;28;658315;-66
2022/05/12 03:49:15;;;;;;;8.97;6.03;;;12.20;99.90;;;;;;4380691;28;658288;-66
2022/05/12 03:52:03;;;;;;;10.37;5.83;;;12.30;99.90;;;;;;4405122;28;656281;-66
2022/05/12 03:54:51;;;;;;;12.23;6.43;;;12.30;99.90;;;;;;4395714;28;657557;-66
2022/05/12 03:57:39;;;;;;;13.57;5.87;;;12.30;99.90;;;;;;4400515;28;658065;-66
2022/05/12 04:00:27;;;;;;;9.90;5.90;;;12.40;99.90;;;;;;4377151;28;658057;-66
2022/05/12 04:03:15;;;;;;;6.87;5.70;;;12.60;99.90;;;;;;4397784;28;656436;-66
2022/05/12 04:06:02;;;;;;;8.30;5.60;;;12.70;99.90;;;;;;4391374;28;656833;-66
2022/05/12 04:08:50;;;;;;;11.77;6.17;;;12.90;99.90;;;;;;4400086;28;656171;-65
2022/05/12 04:11:39;;;;;;;11.67;5.93;;;13.10;99.90;;;;;;4388516;28;658646;-66
2022/05/12 04:14:26;;;;;;;8.30;5.67;;;13.20;99.90;;;;;;4375450;28;657995;-66
2022/05/12 04:17:15;;;;;;;10.63;5.73;;;13.30;99.90;;;;;;4401574;28;657562;-66
2022/05/12 04:20:03;;;;;;;7.87;5.67;;;13.50;99.90;;;;;;4377683;28;659151;-66
2022/05/12 04:22:51;;;;;;;9.10;5.83;;;13.70;99.90;;;;;;4375544;28;656595;-66
2022/05/12 04:25:38;;;;;;;10.13;5.30;;;13.80;99.90;;;;;;4395465;28;657283;-66
2022/05/12 04:28:27;;;;;;;7.63;4.90;;;14.10;99.90;;;;;;4382303;28;658571;-66
2022/05/12 04:31:14;;;;;;;10.77;5.33;;;14.30;99.90;;;;;;4404666;28;656061;-66
2022/05/12 04:37:06;;;;;;;6.70;4.40;;;15.70;99.90;;;;;;4360323;28;657360;-66
2022/05/12 04:39:53;;;;;;;12.57;4.97;;;15.40;99.90;;;;;;4408012;28;657299;-66
2022/05/12 04:42:40;;;;;;;7.80;4.63;;;16.00;99.90;;;;;;4382952;28;658002;-66
2022/05/12 04:45:31;;;;;;;7.17;4.90;;;16.20;99.90;;;;;;4410736;28;657475;-66
2022/05/12 04:48:18;;;;;;;9.43;4.90;;;16.70;99.90;;;;;;4396324;28;657596;-66
2022/05/12 04:51:05;;;;;;;9.93;4.50;;;17.00;99.90;;;;;;4386690;28;656431;-66
2022/05/12 04:53:52;;;;;;;9.10;5.00;;;17.20;99.90;;;;;;4422364;28;657375;-66
2022/05/12 04:56:40;;;;;;;7.47;4.47;;;17.50;99.90;;;;;;4417521;28;656555;-66
2022/05/12 04:59:27;;;;;;;7.53;4.70;;;17.50;99.90;;;;;;4412878;28;657677;-66
2022/05/12 05:02:17;;;;;;;9.60;5.20;;;17.60;99.90;;;;;;4412459;28;657155;-66
2022/05/12 05:05:05;;;;;;;8.53;4.70;;;17.90;95.80;;;;;;4420488;28;657140;-66
2022/05/12 05:07:52;;;;;;;7.57;4.80;;;18.00;97.30;;;;;;4403211;28;657978;-66
2022/05/12 05:10:39;;;;;;;10.23;5.00;;;18.00;98.80;;;;;;4420030;28;656846;-66
2022/05/12 05:13:26;;;;;;;6.80;4.60;;;18.10;96.90;;;;;;4392188;28;658461;-66
2022/05/12 05:16:14;;;;;;;7.20;4.83;;;18.30;96.60;;;;;;4419411;28;657900;-66
2022/05/12 05:19:02;;;;;;;8.93;4.80;;;18.30;97.80;;;;;;4402820;28;657445;-66
2022/05/12 05:21:50;;;;;;;8.23;4.27;;;18.40;95.90;;;;;;4422243;28;657605;-66
2022/05/12 05:24:37;;;;;;;8.97;4.60;;;18.50;97.70;;;;;;4397413;28;657741;-66
2022/05/12 05:27:24;;;;;;;9.90;5.67;;;18.60;99.90;;;;;;4405779;28;656291;-67
2022/05/12 05:30:13;;;;;;;10.27;5.43;;;18.80;97.20;;;;;;4392621;28;657050;-66
2022/05/12 05:33:01;;;;;;;9.93;5.23;;;18.90;96.60;;;;;;4382151;28;657993;-67
2022/05/12 05:35:49;;;;;;;9.13;5.40;;;19.10;92.60;;;;;;4423265;28;658026;-66
2022/05/12 05:38:37;;;;;;;12.43;5.17;;;19.10;91.40;;;;;;4396006;28;657306;-66
2022/05/12 05:41:24;;;;;;;12.10;5.70;;;19.20;93.90;;;;;;4415630;28;658099;-66
2022/05/12 05:44:12;;;;;;;12.63;5.80;;;19.20;98.80;;;;;;4392447;28;658143;-66
2022/05/12 05:46:59;;;;;;;9.73;5.60;;;19.20;95.70;;;;;;4427420;28;657393;-66
2022/05/12 05:49:46;;;;;;;19.80;5.83;;;19.10;96.50;;;;;;4385391;28;656746;-66
2022/05/12 05:55:39;;;;;;;16.10;5.27;;;19.10;96.70;;;;;;4394649;28;659338;-66
2022/05/12 05:58:27;;;;;;;10.17;5.60;;;19.30;92.90;;;;;;4398229;28;657991;-66
2022/05/12 06:01:15;;;;;;;10.83;5.53;;;19.30;92.90;;;;;;4420003;28;658521;-66
2022/05/12 06:04:02;;;;;;;10.30;5.37;;;19.50;93.90;;;;;;4384772;28;658578;-66
2022/05/12 06:06:49;;;;;;;8.80;5.13;;;19.70;93.30;;;;;;4422299;28;658003;-66
2022/05/12 06:09:38;;;;;;;14.90;5.67;;;19.90;93.20;;;;;;4405300;28;656231;-66
2022/05/12 06:12:25;;;;;;;11.63;4.60;;;20.10;93.30;;;;;;4404619;28;658048;-66
2022/05/12 06:15:13;;;;;;;8.53;4.93;;;20.40;83.70;;;;;;4420640;28;658716;-66
2022/05/12 06:18:00;;;;;;;8.60;4.90;;;20.70;82.20;;;;;;4412632;28;656634;-66
2022/05/12 06:20:49;;;;;;;13.00;4.90;;;20.80;82.70;;;;;;4425875;28;656694;-66
2022/05/12 06:23:37;;;;;;;8.87;4.87;;;21.00;80.50;;;;;;4387117;28;658901;-66
2022/05/12 06:26:25;;;;;;;9.40;4.97;;;21.10;83.50;;;;;;4417381;28;656948;-66
2022/05/12 06:29:13;;;;;;;10.93;4.07;;;21.20;78.40;;;;;;4395051;28;657039;-66
2022/05/12 06:32:01;;;;;;;7.43;4.17;;;21.40;76.00;;;;;;4389426;28;657522;-66
2022/05/12 06:34:48;;;;;;;8.17;2.67;;;21.50;75.80;;;;;;4424251;28;657436;-66
2022/05/12 06:37:36;;;;;;;7.33;4.20;;;21.70;69.20;;;;;;4405635;28;657877;-66
2022/05/12 06:40:23;;;;;;;12.17;4.37;;;21.80;69.20;;;;;;4425035;28;658174;-66
2022/05/12 06:43:13;;;;;;;11.47;4.10;;;22.00;70.40;;;;;;4403368;28;657450;-66
2022/05/12 06:46:00;;;;;;;6.10;3.27;;;22.20;69.70;;;;;;4404024;28;658086;-66
2022/05/12 06:48:48;;;;;;;9.83;4.03;;;22.30;66.00;;;;;;4420942;28;656978;-66
2022/05/12 06:51:36;;;;;;;7.73;3.20;;;22.20;63.80;;;;;;4395347;28;657331;-66
2022/05/12 06:54:24;;;;;;;9.73;4.03;;;22.30;67.40;;;;;;4425429;28;656907;-66
2022/05/12 06:57:11;;;;;;;7.10;3.30;;;22.50;65.60;;;;;;4402648;28;657082;-66
2022/05/12 07:00:00;;;;;;;7.27;3.27;;;22.50;66.40;;;;;;4405975;28;657698;-66
2022/05/12 07:02:47;;;;;;;6.17;3.07;;;22.70;63.20;;;;;;4381358;28;657617;-67
2022/05/12 07:05:35;;;;;;;6.97;3.90;;;22.90;66.30;;;;;;4415847;28;656541;-66
2022/05/12 07:08:22;;;;;;;6.47;3.83;;;22.80;60.80;;;;;;4421164;28;657726;-66
2022/05/12 07:11:10;;;;;;;9.50;3.83;;;22.80;65.10;;;;;;4414242;28;656529;-66
2022/05/12 07:13:57;;;;;;;5.90;3.17;;;23.10;62.70;;;;;;4425610;28;657738;-66
2022/05/12 07:16:47;;;;;;;10.97;3.93;;;23.20;60.70;;;;;;4416064;28;656327;-66
2022/05/12 07:19:34;;;;;;;4.50;3.20;;;23.30;62.40;;;;;;4419955;28;658528;-66
2022/05/12 07:28:32;;;;;;;9.20;3.80;;;23.40;60.20;;;;;;4371053;28;657557;-66
2022/05/12 07:31:20;;;;;;;6.00;3.40;;;23.60;59.10;;;;;;4418351;28;656080;-66
2022/05/12 07:34:09;;;;;;;9.33;3.03;;;23.70;57.70;;;;;;4397321;28;657637;-66
2022/05/12 07:36:56;;;;;;;12.43;2.73;;;23.70;57.30;;;;;;4403695;28;657079;-66
2022/05/12 07:39:43;;;;;;;16.30;3.80;;;23.80;57.60;;;;;;4412937;28;658788;-66
2022/05/12 07:42:30;;;;;;;9.13;3.53;;;24.00;58.00;;;;;;4403554;28;657839;-66
2022/05/12 07:45:17;;;;;;;13.00;3.97;;;24.30;56.70;;;;;;4422445;28;656678;-66
2022/05/12 07:48:06;;;;;;;7.37;3.03;;;24.40;58.50;;;;;;4409764;28;657539;-66
2022/05/12 07:50:54;;;;;;;9.47;3.70;;;24.30;55.30;;;;;;4424647;28;657331;-66
2022/05/12 07:53:42;;;;;;;9.50;3.90;;;24.70;57.20;;;;;;4403167;28;657892;-66
2022/05/12 07:56:29;;;;;;;9.47;3.50;;;24.50;57.20;;;;;;4421197;28;656295;-66
2022/05/12 07:59:17;;;;;;;12.10;3.60;;;24.70;56.00;;;;;;4403089;28;656634;-66
2022/05/12 08:02:04;;;;;;;11.63;3.80;;;24.60;55.30;;;;;;4420265;28;658035;-66
2022/05/12 08:04:52;;;;;;;6.63;3.00;;;24.60;57.70;;;;;;4397927;28;657282;-66
2022/05/12 08:07:40;;;;;;;4.37;2.70;;;24.40;56.40;;;;;;4421940;28;656728;-66
2022/05/12 08:10:28;;;;;;;7.83;3.20;;;24.60;55.00;;;;;;4396247;28;657211;-66
2022/05/12 08:13:18;;;;;;;7.30;2.67;;;24.80;54.40;;;;;;4415545;28;656618;-67
2022/05/12 08:16:06;;;;;;;8.50;2.85;;;25.10;54.60;;;;;;4397225;28;656806;-66
2022/05/12 08:18:53;;;;;;;7.80;3.20;;;24.90;55.10;;;;;;4423319;28;658371;-66
2022/05/12 08:21:41;;;;;;;14.10;3.77;;;24.40;56.10;;;;;;4397145;28;656308;-66
2022/05/12 08:24:29;;;;;;;13.83;3.27;;;24.00;57.50;;;;;;4403208;28;658634;-66
2022/05/12 08:27:16;;;;;;;13.97;4.13;;;24.00;56.80;;;;;;4400651;28;657399;-67
2022/05/12 08:30:04;;;;;;;7.23;3.47;;;23.70;59.50;;;;;;4414301;28;658432;-67
2022/05/12 08:32:51;;;;;;;13.90;3.80;;;23.80;57.60;;;;;;4394385;28;658624;-66
2022/05/12 08:35:38;;;;;;;5.63;3.67;;;24.60;58.10;;;;;;4418457;28;659114;-66
2022/05/12 08:38:26;;;;;;;17.10;3.67;;;24.60;55.50;;;;;;4400602;28;657396;-67
2022/05/12 08:41:19;;;;;;;11.37;3.60;;;24.70;56.90;;;;;;4411146;28;658498;-66
2022/05/12 08:44:09;;;;;;;9.93;3.37;;;25.00;56.30;;;;;;4373267;28;658527;-67
2022/05/12 08:46:57;;;;;;;8.40;3.57;;;24.90;54.50;;;;;;4403237;28;656246;-66
2022/05/12 08:49:46;;;;;;;10.63;3.80;;;24.60;56.30;;;;;;4412805;28;656320;-66
2022/05/12 08:52:38;;;;;;;8.20;2.53;;;24.60;55.30;;;;;;4414668;28;658912;-66
2022/05/12 08:55:27;;;;;;;14.60;3.77;;;24.50;55.10;;;;;;4385415;28;657130;-66
2022/05/12 08:58:20;;;;;;;18.70;3.83;;;24.80;55.20;;;;;;4417258;28;657990;-66
2022/05/12 09:01:10;;;;;;;14.37;3.17;;;24.70;56.10;;;;;;4373795;28;658895;-66
2022/05/12 09:04:16;;;;;;;10.87;3.50;;;24.50;54.60;;;;;;4397962;28;658954;-66
2022/05/12 09:07:07;;;;;;;13.23;3.10;;;24.40;55.20;;;;;;4391384;28;658403;-66
2022/05/12 09:10:01;;;;;;;8.90;3.13;;;24.60;54.40;;;;;;4391116;28;657663;-67
2022/05/12 09:12:49;;;;;;;12.83;3.10;;;24.30;53.20;;;;;;4399575;28;657376;-66
2022/05/12 09:15:39;;;;;;;11.70;2.93;;;24.60;53.10;;;;;;4397066;28;657772;-66
2022/05/12 09:18:29;;;;;;;12.47;3.30;;;24.60;53.50;;;;;;4386649;28;657437;-66
2022/05/12 09:21:17;;;;;;;6.93;3.93;;;24.40;54.40;;;;;;4401824;28;657565;-67
2022/05/12 09:24:07;;;;;;;5.17;2.90;;;24.40;54.20;;;;;;4422018;28;656288;-67
2022/05/12 09:27:07;;;;;;;8.60;3.20;;;24.30;53.60;;;;;;4398831;28;656714;-66
2022/05/12 09:29:54;;;;;;;6.60;2.60;;;24.30;53.20;;;;;;4397479;28;657139;-66
2022/05/12 09:32:43;;;;;;;11.43;2.57;;;24.10;52.50;;;;;;4402358;28;656845;-67
2022/05/12 09:35:31;;;;;;;8.20;2.80;;;23.90;54.00;;;;;;4409867;28;657994;-66
2022/05/12 09:38:23;;;;;;;10.70;3.10;;;24.30;55.10;;;;;;4433820;28;657796;-68
2022/05/12 09:41:17;;;;;;;10.47;2.93;;;24.70;54.80;;;;;;4390058;28;658037;-66
2022/05/12 09:44:15;;;;;;;8.57;3.10;;;24.30;53.80;;;;;;4400478;28;657350;-67
2022/05/12 09:47:04;;;;;;;10.30;3.03;;;24.60;55.40;;;;;;4376376;28;657399;-67
2022/05/12 09:50:15;;;;;;;15.85;3.17;;;25.20;52.20;;;;;;4407746;28;657911;-67
2022/05/12 09:53:01;;;;;;;11.00;3.10;;;25.20;53.00;;;;;;4396477;28;657528;-66
2022/05/12 09:55:58;;;;;;;10.05;3.35;;;25.70;51.10;;;;;;4424776;28;658421;-67
2022/05/12 09:58:58;;;;;;;13.05;3.40;;;25.20;49.60;;;;;;4377236;28;657919;-67
2022/05/12 10:01:51;;;;;;;5.88;2.42;;;25.30;51.50;;;;;;4387211;28;658024;-67
2022/05/12 10:10:53;;;;;;;6.15;2.78;;;26.50;51.40;;;;;;4397719;28;657650;-67
2022/05/12 10:13:43;;;;;;;12.93;3.97;;;26.50;48.40;;;;;;4382995;28;656453;-67
2022/05/12 10:16:31;;;;;;;12.63;4.00;;;26.40;49.80;;;;;;4403987;28;659852;-67
2022/05/12 10:19:22;;;;;;;12.68;4.03;;;26.70;51.10;;;;;;4413697;28;658148;-67
2022/05/12 10:22:14;;;;;;;8.85;3.08;;;26.40;50.00;;;;;;4389775;28;658849;-67
2022/05/12 10:25:18;;;;;;;13.48;3.63;;;26.60;49.70;;;;;;4374311;28;658422;-68
2022/05/12 10:28:10;;;;;;;10.25;3.13;;;26.90;49.00;;;;;;4384245;28;657935;-67
2022/05/12 10:31:00;;;;;;;15.85;3.25;;;27.20;47.00;;;;;;4391033;28;658579;-66
2022/05/12 10:33:52;;;;;;;10.35;3.30;;;26.70;46.60;;;;;;4398152;28;658271;-67
2022/05/12 10:36:45;;;;;;;11.02;2.67;;;25.80;47.30;;;;;;4398042;28;657865;-68
2022/05/12 10:39:37;;;;;;;15.65;3.53;;;25.70;46.60;;;;;;4369575;28;658757;-67
2022/05/12 10:42:33;;;;;;;9.45;2.88;;;26.00;47.70;;;;;;4396929;28;657302;-67
2022/05/12 10:45:23;;;;;;;7.85;2.80;;;25.90;47.00;;;;;;4378791;28;656315;-67
2022/05/12 10:48:23;;;;;;;15.32;3.10;;;25.90;46.20;;;;;;4397517;28;656587;-67
2022/05/12 10:51:17;;;;;;;9.00;2.65;;;25.80;47.90;;;;;;4384669;28;657863;-67
2022/05/12 10:54:13;;;;;;;10.38;2.70;;;25.70;47.00;;;;;;4397190;28;657008;-67
2022/05/12 10:57:09;;;;;;;12.13;2.72;;;26.60;48.00;;;;;;4377151;28;658115;-67
2022/05/12 11:00:09;;;;;;;7.55;2.42;;;26.80;45.60;;;;;;4380161;28;658282;-67
2022/05/12 11:03:00;;;;;;;9.68;2.70;;;25.70;47.00;;;;;;4394980;28;656921;-67
2022/05/12 11:05:48;;;;;;;9.85;2.63;;;25.30;46.60;;;;;;4398701;28;657576;-67
2022/05/12 11:08:37;;;;;;;12.88;2.80;;;25.10;47.60;;;;;;4394519;28;657070;-67
2022/05/12 11:11:25;;;;;;;12.38;3.10;;;25.40;49.30;;;;;;4420127;28;657329;-68
2022/05/12 11:14:16;;;;;;;13.02;3.17;;;25.60;47.50;;;;;;4396007;28;658304;-68
2022/05/12 11:17:10;;;;;;;7.82;2.80;;;25.80;48.10;;;;;;4400133;28;657886;-68
2022/05/12 11:20:01;;;;;;;10.38;2.78;;;26.10;47.80;;;;;;4376066;28;656968;-68
2022/05/12 11:22:50;;;;;;;7.95;2.35;;;26.60;47.80;;;;;;4392419;28;658190;-68
2022/05/12 11:25:40;;;;;;;7.43;3.20;;;26.70;47.90;;;;;;4391697;28;658187;-68
2022/05/12 11:31:38;;;;;;;9.32;2.58;;;25.90;47.80;;;;;;4395776;28;656568;-67
2022/05/12 11:34:27;;;;;;;9.95;2.60;;;26.30;49.70;;;;;;4363872;28;657185;-67
2022/05/12 11:37:29;;;;;;;7.72;2.40;;;26.60;48.90;;;;;;4419738;28;656548;-67
2022/05/12 11:40:52;;;;;;;11.25;2.60;;;25.90;47.40;;;;;;4375573;28;657263;-67
2022/05/12 11:47:05;;;;;;;14.13;2.58;;;26.40;44.70;;;;;;4400609;28;658170;-68
2022/05/12 11:50:05;;;;;;;9.50;2.50;;;26.60;46.40;;;;;;4371186;28;657795;-67
2022/05/12 11:52:58;;;;;;;13.73;2.60;;;27.20;45.00;;;;;;4375104;28;657231;-67
2022/05/12 11:55:57;;;;;;;13.82;2.67;;;27.20;43.40;;;;;;4384940;28;657844;-68
2022/05/12 11:58:49;;;;;;;17.65;2.58;;;27.30;44.80;;;;;;4396043;28;658237;-68
2022/05/12 12:01:58;;;;;;;17.55;3.00;;;27.50;43.10;;;;;;4398173;28;657725;-67
2022/05/12 12:04:47;;;;;;;23.65;3.47;;;26.90;42.50;;;;;;4392630;28;657934;-67
2022/05/12 12:08:00;;;;;;;11.65;2.38;;;26.80;43.70;;;;;;4416586;28;657607;-68
2022/05/12 12:10:48;;;;;;;7.30;1.58;;;26.70;44.70;;;;;;4369608;28;657982;-68
2022/05/12 12:13:36;;;;;;;15.80;2.53;;;26.60;44.30;;;;;;4399747;28;656445;-66
2022/05/12 12:16:23;;;;;;;17.13;2.70;;;26.40;44.00;;;;;;4423129;28;658316;-68
2022/05/12 12:19:10;;;;;;;14.05;2.63;;;26.80;47.30;;;;;;4383889;28;657489;-66
2022/05/12 12:22:42;;;;;;;10.43;2.40;;;27.00;43.70;;;;;;4423348;28;659404;-67
2022/05/12 12:25:35;;;;;;;16.15;2.60;;;25.80;43.60;;;;;;4397482;28;657774;-68
2022/05/12 12:28:28;;;;;;;9.57;2.75;;;26.50;45.50;;;;;;4397816;28;657738;-68
2022/05/12 12:31:23;;;;;;;6.57;2.58;;;27.20;43.90;;;;;;4373484;28;656986;-68
2022/05/12 12:34:13;;;;;;;11.77;2.80;;;26.70;44.50;;;;;;4377764;28;656383;-67
2022/05/12 12:37:01;;;;;;;13.52;3.03;;;26.80;45.10;;;;;;4402701;28;657779;-67
2022/05/12 12:39:49;;;;;;;13.98;3.28;;;27.00;47.30;;;;;;4420429;28;657801;-67
2022/05/12 12:42:43;;;;;;;12.07;3.08;;;26.80;45.60;;;;;;4396388;28;657768;-68
2022/05/12 12:45:31;;;;;;;16.23;3.20;;;26.40;47.00;;;;;;4373388;28;658380;-67
2022/05/12 12:48:20;;;;;;;13.68;3.03;;;26.80;48.20;;;;;;4408411;28;658565;-67
2022/05/12 12:51:07;;;;;;;11.13;2.90;;;27.20;46.40;;;;;;4397524;28;658393;-67
2022/05/12 12:57:08;;;;;;;16.65;3.53;;;26.50;46.60;;;;;;4375124;28;659508;-66
2022/05/12 12:59:58;;;;;;;10.07;3.08;;;25.70;48.30;;;;;;4393383;28;657737;-67
2022/05/12 13:02:46;;;;;;;10.35;3.30;;;26.00;48.10;;;;;;4403965;28;657589;-67
2022/05/12 13:05:34;;;;;;;13.25;3.40;;;25.70;49.50;;;;;;4423471;28;658881;-67
2022/05/12 13:08:23;;;;;;;11.85;3.53;;;25.40;50.00;;;;;;4403699;28;657928;-66
2022/05/12 13:11:19;;;;;;;13.80;3.35;;;25.50;49.70;;;;;;4396840;28;657627;-67
2022/05/12 13:14:06;;;;;;;8.63;2.92;;;26.20;50.40;;;;;;4399825;28;657718;-67
2022/05/12 13:16:55;;;;;;;7.78;3.35;;;26.50;49.20;;;;;;4421436;28;658087;-67
2022/05/12 13:19:42;;;;;;;9.02;2.38;;;26.90;49.00;;;;;;4398813;28;657584;-67
2022/05/12 13:22:30;;;;;;;5.97;3.67;;;26.30;48.20;;;;;;4422027;28;658059;-67
2022/05/12 13:25:20;;;;;;;10.88;3.50;;;25.90;49.60;;;;;;4396781;28;657021;-67
2022/05/12 13:28:08;;;;;;;9.68;3.28;;;26.40;49.00;;;;;;4399259;28;658220;-67
2022/05/12 13:31:13;;;;;;;11.77;3.35;;;25.70;49.20;;;;;;4413800;28;656491;-67
2022/05/12 13:34:05;;;;;;;14.70;3.53;;;25.50;50.30;;;;;;4391269;28;658257;-67
2022/05/12 13:36:53;;;;;;;10.18;3.10;;;25.40;51.40;;;;;;4404692;28;657863;-67
2022/05/12 13:39:49;;;;;;;12.20;3.22;;;25.30;50.00;;;;;;4408644;28;657437;-66
2022/05/12 13:42:41;;;;;;;19.67;3.72;;;25.90;50.20;;;;;;4372904;28;657855;-67
2022/05/12 13:45:31;;;;;;;14.48;3.15;;;26.60;49.70;;;;;;4401912;28;658840;-67
2022/05/12 13:48:22;;;;;;;15.93;3.00;;;26.00;48.90;;;;;;4401604;28;658250;-67
2022/05/12 13:51:13;;;;;;;13.20;2.92;;;25.60;50.90;;;;;;4401763;28;657647;-67
2022/05/12 13:54:08;;;;;;;10.30;3.00;;;25.30;49.80;;;;;;4378420;28;658387;-67
2022/05/12 13:57:13;;;;;;;10.75;2.65;;;25.80;48.00;;;;;;4393027;28;658342;-67
2022/05/12 14:00:02;;;;;;;9.88;2.80;;;25.50;48.00;;;;;;4403156;28;657711;-67
2022/05/12 14:02:50;;;;;;;12.07;3.05;;;25.10;49.50;;;;;;4423126;28;656743;-66
2022/05/12 14:05:38;;;;;;;12.48;2.90;;;25.80;49.50;;;;;;4395754;28;658236;-67
2022/05/12 14:08:32;;;;;;;12.75;2.70;;;25.40;49.30;;;;;;4415447;28;657486;-66
2022/05/12 14:11:28;;;;;;;11.40;2.50;;;25.50;49.90;;;;;;4395097;28;658118;-67
2022/05/12 14:20:27;;;;;;;12.68;2.40;;;25.30;48.40;;;;;;4404810;28;657658;-67
2022/05/12 14:23:14;;;;;;;9.38;2.20;;;25.30;50.50;;;;;;4417585;28;657323;-67
2022/05/12 14:26:02;;;;;;;16.65;2.30;;;25.50;47.90;;;;;;4399579;28;656842;-66
2022/05/12 14:28:49;;;;;;;9.73;2.15;;;25.60;49.00;;;;;;4417013;28;657809;-67
2022/05/12 14:31:37;;;;;;;11.55;2.15;;;25.40;48.80;;;;;;4403078;28;656779;-67
2022/05/12 14:34:24;;;;;;;5.78;2.03;;;25.00;49.60;;;;;;4415090;28;657842;-66
2022/05/12 14:37:12;;;;;;;7.77;2.00;;;25.50;49.30;;;;;;4397837;28;658303;-67
2022/05/12 14:40:00;;;;;;;13.63;2.23;;;24.90;48.50;;;;;;4418222;28;657416;-67
2022/05/12 14:42:48;;;;;;;9.80;1.80;;;25.10;49.60;;;;;;4396145;28;657964;-67
2022/05/12 14:45:36;;;;;;;12.37;2.13;;;25.40;49.40;;;;;;4404247;28;656598;-67
2022/05/12 14:48:23;;;;;;;8.90;1.42;;;25.10;49.50;;;;;;4420760;28;658320;-67
2022/05/12 14:51:12;;;;;;;14.93;2.00;;;24.30;48.70;;;;;;4398401;28;656849;-66
2022/05/12 14:53:59;;;;;;;14.60;2.00;;;24.20;49.50;;;;;;4412867;28;658033;-66
2022/05/12 14:56:46;;;;;;;13.20;2.30;;;24.70;50.70;;;;;;4404968;28;657790;-67
2022/05/12 14:59:35;;;;;;;10.27;1.80;;;25.20;47.90;;;;;;4418066;28;658132;-68
2022/05/12 15:02:23;;;;;;;11.23;2.17;;;25.60;47.30;;;;;;4392925;28;658822;-67